createdAt,value
2019-01-12T00:00:29.413Z,4.37
2019-01-12T00:02:57.631Z,3.73
2019-01-12T00:05:25.945Z,4.00
2019-01-12T00:07:54.168Z,5.10
2019-01-12T00:10:22.421Z,6.77
2019-01-12T00:12:50.653Z,5.63
2019-01-12T00:15:18.922Z,3.87
2019-01-12T00:17:47.153Z,7.07
2019-01-12T00:20:15.388Z,5.93
2019-01-12T00:22:43.629Z,5.33
2019-01-12T00:25:11.845Z,6.07
2019-01-12T00:27:40.077Z,3.73
2019-01-12T00:30:11.702Z,6.97
2019-01-12T00:32:40.015Z,8.43
2019-01-12T00:35:08.241Z,3.97
2019-01-12T00:37:36.541Z,6.20
2019-01-12T00:40:07.118Z,7.17
2019-01-12T00:42:35.344Z,2.57
2019-01-12T00:45:04.138Z,3.90
2019-01-12T00:47:32.800Z,3.43
2019-01-12T00:50:01.140Z,4.23
2019-01-12T00:52:29.449Z,2.03
2019-01-12T00:54:57.679Z,3.97
2019-01-12T00:57:25.914Z,3.17
2019-01-12T00:59:54.141Z,2.97
2019-01-12T01:02:22.369Z,3.07
2019-01-12T01:04:50.592Z,2.63
2019-01-12T01:07:18.832Z,4.47
2019-01-12T01:09:47.133Z,4.30
2019-01-12T01:12:15.365Z,8.13
2019-01-12T01:14:43.601Z,4.97
2019-01-12T01:17:12.094Z,3.23
2019-01-12T01:19:40.357Z,3.40
2019-01-12T01:22:08.619Z,3.60
2019-01-12T01:24:36.833Z,4.43
2019-01-12T01:27:05.096Z,4.60
2019-01-12T01:29:33.313Z,8.37
2019-01-12T01:32:01.544Z,5.47
2019-01-12T01:34:29.764Z,4.00
2019-01-12T01:36:58.001Z,3.87
2019-01-12T01:39:26.220Z,3.83
2019-01-12T01:41:54.453Z,3.90
2019-01-12T01:44:22.686Z,3.33
2019-01-12T01:46:50.926Z,2.43
2019-01-12T01:49:19.150Z,2.43
2019-01-12T01:51:47.368Z,3.67
2019-01-12T01:54:15.608Z,4.07
2019-01-12T01:56:43.820Z,3.10
2019-01-12T01:59:12.054Z,3.17
2019-01-12T02:01:40.285Z,3.83
2019-01-12T02:04:08.516Z,2.57
2019-01-12T02:06:36.737Z,4.67
2019-01-12T02:09:06.676Z,3.57
2019-01-12T02:11:34.913Z,2.87
2019-01-12T02:14:03.139Z,4.57
2019-01-12T02:16:31.356Z,4.17
2019-01-12T02:18:59.669Z,2.50
2019-01-12T02:21:27.898Z,2.63
2019-01-12T02:23:56.141Z,1.37
2019-01-12T02:26:24.353Z,4.80
2019-01-12T02:28:52.614Z,2.20
2019-01-12T02:31:20.838Z,3.50
2019-01-12T02:33:49.071Z,2.65
2019-01-12T02:36:17.293Z,4.13
2019-01-12T02:38:45.518Z,2.27
2019-01-12T02:41:13.766Z,1.10
2019-01-12T02:43:42.001Z,2.80
2019-01-12T02:46:10.220Z,1.67
2019-01-12T02:48:38.465Z,2.13
2019-01-12T02:51:06.694Z,1.43
2019-01-12T02:53:34.962Z,3.00
2019-01-12T02:56:03.207Z,2.33
2019-01-12T02:58:31.423Z,3.30
2019-01-12T03:00:59.654Z,1.30
2019-01-12T03:03:27.884Z,2.37
2019-01-12T03:05:56.133Z,1.70
2019-01-12T03:08:24.457Z,2.00
2019-01-12T03:10:52.697Z,2.40
2019-01-12T03:13:20.928Z,2.10
2019-01-12T03:15:49.163Z,3.53
2019-01-12T03:18:17.377Z,2.53
2019-01-12T03:20:45.609Z,3.13
2019-01-12T03:23:13.839Z,3.43
2019-01-12T03:25:42.057Z,3.43
2019-01-12T03:28:10.274Z,1.40
2019-01-12T03:30:38.522Z,3.43
2019-01-12T03:33:06.806Z,2.50
2019-01-12T03:35:35.034Z,2.30
2019-01-12T03:38:03.246Z,1.50
2019-01-12T03:40:31.466Z,3.57
2019-01-12T03:43:00.279Z,1.43
2019-01-12T03:45:28.545Z,3.07
2019-01-12T03:47:56.786Z,3.03
2019-01-12T03:50:27.672Z,1.30
2019-01-12T03:52:55.905Z,2.50
2019-01-12T03:55:25.778Z,5.03
2019-01-12T03:57:54.242Z,1.63
2019-01-12T04:00:22.463Z,3.10
2019-01-12T04:02:50.693Z,1.60
2019-01-12T04:05:18.925Z,2.83
2019-01-12T04:07:47.161Z,2.40
2019-01-12T04:10:15.415Z,3.67
2019-01-12T04:12:43.665Z,3.23
2019-01-12T04:15:12.937Z,7.57
2019-01-12T04:17:41.162Z,2.70
2019-01-12T04:20:12.383Z,2.97
2019-01-12T04:22:40.823Z,5.43
2019-01-12T04:25:09.055Z,2.53
2019-01-12T04:27:37.355Z,3.60
2019-01-12T04:30:11.388Z,3.03
2019-01-12T04:32:39.631Z,2.60
2019-01-12T04:35:07.838Z,2.97
2019-01-12T04:37:36.271Z,3.00
2019-01-12T04:40:07.886Z,3.83
2019-01-12T04:42:36.123Z,2.27
2019-01-12T04:45:06.175Z,3.87
2019-01-12T04:47:34.400Z,2.83
2019-01-12T04:50:02.613Z,2.13
2019-01-12T04:52:30.863Z,3.97
2019-01-12T04:54:59.067Z,5.23
2019-01-12T04:57:27.289Z,3.50
2019-01-12T04:59:55.613Z,4.57
2019-01-12T05:02:23.893Z,3.07
2019-01-12T05:04:52.172Z,2.53
2019-01-12T05:07:20.442Z,2.47
2019-01-12T05:09:48.670Z,4.53
2019-01-12T05:12:16.890Z,5.30
2019-01-12T05:14:45.137Z,4.23
2019-01-12T05:17:13.374Z,4.63
2019-01-12T05:19:41.713Z,3.07
2019-01-12T05:22:09.958Z,2.83
2019-01-12T05:24:38.198Z,4.53
2019-01-12T05:27:06.414Z,4.17
2019-01-12T05:29:34.723Z,3.87
2019-01-12T05:32:02.954Z,5.57
2019-01-12T05:34:31.205Z,2.50
2019-01-12T05:36:59.421Z,2.50
2019-01-12T05:39:27.673Z,3.73
2019-01-12T05:41:55.881Z,2.40
2019-01-12T05:44:24.119Z,5.07
2019-01-12T05:46:52.342Z,3.03
2019-01-12T05:49:20.582Z,3.10
2019-01-12T05:51:48.807Z,3.63
2019-01-12T05:54:17.070Z,3.13
2019-01-12T05:56:45.297Z,2.10
2019-01-12T05:59:13.525Z,3.50
2019-01-12T06:01:41.769Z,3.10
2019-01-12T06:04:09.980Z,5.57
2019-01-12T06:06:38.213Z,5.17
2019-01-12T06:09:08.065Z,5.63
2019-01-12T06:11:36.344Z,8.67
2019-01-12T06:14:04.634Z,3.73
2019-01-12T06:16:32.866Z,3.53
2019-01-12T06:19:01.096Z,6.03
2019-01-12T06:21:29.342Z,4.00
2019-01-12T06:23:57.581Z,4.67
2019-01-12T06:26:25.835Z,4.17
2019-01-12T06:28:54.029Z,4.03
2019-01-12T06:31:22.267Z,6.43
2019-01-12T06:33:50.491Z,4.77
2019-01-12T06:36:18.739Z,7.03
2019-01-12T06:38:47.036Z,5.93
2019-01-12T06:41:15.253Z,4.27
2019-01-12T06:43:43.478Z,7.83
2019-01-12T06:46:11.714Z,9.33
2019-01-12T06:48:39.950Z,8.27
2019-01-12T06:51:08.145Z,6.60
2019-01-12T06:53:36.414Z,10.77
2019-01-12T06:56:10.714Z,9.00
2019-01-12T06:58:34.605Z,8.57
2019-01-12T07:01:02.830Z,7.57
2019-01-12T07:03:31.111Z,7.13
2019-01-12T07:05:59.321Z,10.20
2019-01-12T07:08:27.578Z,9.17
2019-01-12T07:10:55.816Z,9.97
2019-01-12T07:13:24.046Z,10.20
2019-01-12T07:15:52.264Z,9.53
2019-01-12T07:18:20.490Z,7.23
2019-01-12T07:20:48.715Z,11.00
2019-01-12T07:23:16.954Z,10.03
2019-01-12T07:25:45.182Z,11.20
2019-01-12T07:28:13.407Z,9.53
2019-01-12T07:30:41.629Z,10.47
2019-01-12T07:33:09.865Z,10.97
2019-01-12T07:35:38.102Z,13.70
2019-01-12T07:38:06.338Z,13.63
2019-01-12T07:40:34.557Z,10.17
2019-01-12T07:43:02.792Z,9.67
2019-01-12T07:45:31.017Z,16.53
2019-01-12T07:47:59.269Z,13.10
2019-01-12T07:50:27.585Z,11.97
2019-01-12T07:52:55.817Z,13.73
2019-01-12T07:55:24.065Z,10.50
2019-01-12T07:57:52.290Z,14.07
2019-01-12T08:00:20.820Z,14.50
2019-01-12T08:02:49.038Z,11.37
2019-01-12T08:05:17.280Z,13.43
2019-01-12T08:07:45.500Z,15.47
2019-01-12T08:10:18.860Z,16.07
2019-01-12T08:12:47.086Z,14.20
2019-01-12T08:15:15.326Z,12.83
2019-01-12T08:17:43.729Z,15.53
2019-01-12T08:20:11.959Z,17.30
2019-01-12T08:22:40.208Z,12.23
2019-01-12T08:25:09.717Z,14.03
2019-01-12T08:27:37.938Z,15.83
2019-01-12T08:30:11.832Z,11.73
2019-01-12T08:32:40.054Z,15.27
2019-01-12T08:35:08.361Z,16.47
2019-01-12T08:37:36.745Z,16.20
2019-01-12T08:40:07.649Z,14.63
2019-01-12T08:42:35.877Z,16.47
2019-01-12T08:45:05.450Z,16.57
2019-01-12T08:47:33.670Z,12.67
2019-01-12T08:50:01.905Z,14.67
2019-01-12T08:52:30.131Z,15.43
2019-01-12T08:54:58.371Z,15.60
2019-01-12T08:57:26.593Z,14.90
2019-01-12T08:59:54.850Z,18.50
2019-01-12T09:02:23.077Z,17.83
2019-01-12T09:04:51.306Z,14.63
2019-01-12T09:07:19.557Z,17.67
2019-01-12T09:09:47.780Z,13.83
2019-01-12T09:12:16.019Z,19.07
2019-01-12T09:14:44.241Z,20.57
2019-01-12T09:17:12.509Z,23.00
2019-01-12T09:19:40.750Z,22.63
2019-01-12T09:22:08.984Z,20.27
2019-01-12T09:24:37.213Z,16.77
2019-01-12T09:27:05.482Z,22.63
2019-01-12T09:29:36.544Z,18.23
2019-01-12T09:32:04.906Z,19.43
2019-01-12T09:34:33.278Z,28.10
2019-01-12T09:37:01.601Z,17.27
2019-01-12T09:39:29.928Z,19.47
2019-01-12T09:42:02.740Z,19.70
2019-01-12T09:44:30.965Z,18.97
2019-01-12T09:47:01.045Z,19.30
2019-01-12T09:49:29.293Z,18.53
2019-01-12T09:51:57.610Z,18.60
2019-01-12T09:54:25.939Z,22.37
2019-01-12T09:56:54.228Z,20.60
2019-01-12T09:59:22.565Z,22.57
2019-01-12T10:01:50.878Z,21.37
2019-01-12T10:04:19.161Z,20.80
2019-01-12T10:06:47.406Z,19.17
2019-01-12T10:09:15.732Z,20.13
2019-01-12T10:11:44.073Z,22.70
2019-01-12T10:14:12.322Z,21.47
2019-01-12T10:16:40.550Z,24.47
2019-01-12T10:19:08.870Z,23.20
2019-01-12T10:21:37.093Z,20.80
2019-01-12T10:24:05.321Z,25.33
2019-01-12T10:26:33.549Z,27.77
2019-01-12T10:29:04.020Z,25.07
2019-01-12T10:31:31.740Z,27.63
2019-01-12T10:34:00.002Z,26.57
2019-01-12T10:36:28.255Z,21.37
2019-01-12T10:38:56.490Z,27.00
2019-01-12T10:41:24.781Z,27.30
2019-01-12T10:43:54.683Z,23.13
2019-01-12T10:46:22.953Z,32.80
2019-01-12T10:48:51.326Z,34.23
2019-01-12T10:51:19.544Z,29.20
2019-01-12T10:53:47.822Z,29.50
2019-01-12T10:56:16.042Z,32.23
2019-01-12T10:58:44.273Z,24.87
2019-01-12T11:01:12.673Z,33.80
2019-01-12T11:03:40.897Z,31.63
2019-01-12T11:06:09.133Z,27.20
2019-01-12T11:08:37.376Z,29.93
2019-01-12T11:11:05.634Z,33.17
2019-01-12T11:13:33.937Z,33.23
2019-01-12T11:16:03.800Z,31.10
2019-01-12T11:18:32.278Z,33.07
2019-01-12T11:21:00.597Z,34.20
2019-01-12T11:23:28.821Z,29.70
2019-01-12T11:25:57.133Z,30.80
2019-01-12T11:28:25.567Z,26.00
2019-01-12T11:30:53.806Z,29.23
2019-01-12T11:33:22.258Z,29.23
2019-01-12T11:35:50.554Z,30.97
2019-01-12T11:38:20.308Z,31.33
2019-01-12T11:40:48.608Z,30.47
2019-01-12T11:43:16.840Z,31.13
2019-01-12T11:45:45.076Z,27.27
2019-01-12T11:48:19.883Z,27.53
2019-01-12T11:50:43.905Z,26.80
2019-01-12T11:53:13.759Z,28.40
2019-01-12T11:55:42.000Z,24.47
2019-01-12T11:58:10.228Z,26.60
2019-01-12T12:00:38.534Z,22.50
2019-01-12T12:03:06.762Z,25.90
2019-01-12T12:05:37.960Z,22.97
2019-01-12T12:08:08.500Z,21.10
2019-01-12T12:10:36.759Z,21.83
2019-01-12T12:13:06.617Z,20.90
2019-01-12T12:15:34.857Z,21.47
2019-01-12T12:18:03.253Z,21.60
2019-01-12T12:20:31.485Z,20.20
2019-01-12T12:22:59.801Z,18.93
2019-01-12T12:25:28.055Z,19.50
2019-01-12T12:27:57.082Z,19.83
2019-01-12T12:30:28.438Z,20.60
2019-01-12T12:32:56.680Z,15.10
2019-01-12T12:35:24.905Z,16.20
2019-01-12T12:37:53.168Z,14.53
2019-01-12T12:40:23.035Z,15.43
2019-01-12T12:42:51.270Z,17.20
2019-01-12T12:45:25.073Z,13.00
2019-01-12T12:47:53.420Z,15.27
2019-01-12T12:50:21.690Z,15.20
2019-01-12T12:52:50.020Z,12.80
2019-01-12T12:55:18.521Z,16.73
2019-01-12T12:57:46.799Z,12.30
2019-01-12T13:00:20.365Z,15.17
2019-01-12T13:02:48.620Z,11.77
2019-01-12T13:05:16.894Z,13.97
2019-01-12T13:07:45.125Z,14.80
2019-01-12T13:10:16.606Z,12.43
2019-01-12T13:12:44.869Z,13.77
2019-01-12T13:15:13.135Z,13.00
2019-01-12T13:17:41.421Z,11.87
2019-01-12T13:20:12.774Z,11.77
2019-01-12T13:22:41.069Z,12.13
2019-01-12T13:25:09.391Z,9.77
2019-01-12T13:27:39.976Z,9.60
2019-01-12T13:30:11.115Z,9.87
2019-01-12T13:32:39.340Z,9.47
2019-01-12T13:35:07.968Z,8.83
2019-01-12T13:37:36.173Z,10.53
2019-01-12T13:40:07.804Z,7.50
2019-01-12T13:42:36.975Z,6.83
2019-01-12T13:45:08.698Z,6.80
2019-01-12T13:47:36.994Z,6.73
2019-01-12T13:50:17.854Z,6.70
2019-01-12T13:52:46.118Z,6.13
2019-01-12T13:55:15.285Z,5.97
2019-01-12T13:57:47.561Z,6.20
2019-01-12T14:00:16.961Z,5.77
2019-01-12T14:02:45.423Z,5.63
2019-01-12T14:05:15.748Z,5.60
2019-01-12T14:07:43.989Z,5.23
2019-01-12T14:10:15.441Z,5.50
2019-01-12T14:12:43.705Z,4.40
2019-01-12T14:15:14.081Z,4.47
2019-01-12T14:17:42.314Z,5.10
2019-01-12T14:20:19.380Z,5.10
2019-01-12T14:22:47.687Z,4.53
2019-01-12T14:25:17.162Z,5.03
2019-01-12T14:27:45.387Z,5.37
2019-01-12T14:30:15.926Z,5.27
2019-01-12T14:32:45.111Z,5.23
2019-01-12T14:35:15.065Z,4.33
2019-01-12T14:37:43.505Z,4.90
2019-01-12T14:40:16.614Z,4.87
2019-01-12T14:42:44.925Z,5.03
2019-01-12T14:45:19.173Z,5.40
2019-01-12T14:47:47.470Z,4.90
2019-01-12T14:50:15.686Z,5.00
2019-01-12T14:52:43.966Z,6.17
2019-01-12T14:55:16.885Z,4.00
2019-01-12T14:57:45.114Z,4.30
2019-01-12T15:00:19.503Z,4.53
2019-01-12T15:02:47.769Z,4.23
2019-01-12T15:05:17.799Z,4.60
2019-01-12T15:07:46.109Z,4.50
2019-01-12T15:10:16.252Z,5.60
2019-01-12T15:12:44.626Z,3.57
2019-01-12T15:15:14.494Z,5.90
2019-01-12T15:17:42.756Z,4.10
2019-01-12T15:20:22.384Z,2.60
2019-01-12T15:22:50.634Z,3.60
2019-01-12T15:25:19.015Z,4.62
2019-01-12T15:27:47.259Z,3.67
2019-01-12T15:30:21.654Z,5.77
2019-01-12T15:32:49.929Z,4.33
2019-01-12T15:35:21.881Z,3.10
2019-01-12T15:37:50.159Z,5.07
2019-01-12T15:40:24.709Z,5.77
2019-01-12T15:42:52.983Z,3.93
2019-01-12T15:45:23.311Z,6.20
2019-01-12T15:47:51.795Z,3.23
2019-01-12T15:50:21.973Z,2.87
2019-01-12T15:52:53.117Z,4.80
2019-01-12T15:55:21.393Z,5.83
2019-01-12T15:57:50.034Z,5.20
2019-01-12T16:00:26.410Z,4.53
2019-01-12T16:02:54.638Z,3.57
2019-01-12T16:05:23.002Z,7.30
2019-01-12T16:07:51.343Z,3.53
2019-01-12T16:10:22.606Z,5.03
2019-01-12T16:12:50.865Z,4.20
2019-01-12T16:15:23.793Z,5.00
2019-01-12T16:17:52.166Z,6.43
2019-01-12T16:20:28.944Z,3.90
2019-01-12T16:22:58.874Z,5.23
2019-01-12T16:25:29.651Z,4.13
2019-01-12T16:27:57.124Z,5.27
2019-01-12T16:30:25.582Z,5.50
2019-01-12T16:32:54.005Z,4.93
2019-01-12T16:35:22.312Z,5.00
2019-01-12T16:37:52.971Z,4.50
2019-01-12T16:40:23.541Z,6.00
2019-01-12T16:42:51.843Z,5.47
2019-01-12T16:45:26.047Z,3.90
2019-01-12T16:47:54.314Z,8.27
2019-01-12T16:50:22.545Z,4.87
2019-01-12T16:52:50.800Z,9.47
2019-01-12T16:55:20.981Z,6.10
2019-01-12T16:57:49.226Z,8.33
2019-01-12T17:00:22.575Z,7.33
2019-01-12T17:02:51.118Z,7.67
2019-01-12T17:05:22.077Z,9.70
2019-01-12T17:07:50.452Z,8.97
2019-01-12T17:10:20.626Z,9.10
2019-01-12T17:12:48.840Z,7.20
2019-01-12T17:15:21.251Z,10.80
2019-01-12T17:17:49.746Z,5.90
2019-01-12T17:20:22.578Z,7.50
2019-01-12T17:22:51.644Z,6.00
2019-01-12T17:25:19.859Z,7.37
2019-01-12T17:27:53.368Z,9.20
2019-01-12T17:30:23.879Z,6.40
2019-01-12T17:32:52.137Z,10.57
2019-01-12T17:35:20.361Z,10.33
2019-01-12T17:37:48.588Z,8.98
2019-01-12T17:40:17.270Z,11.80
2019-01-12T17:42:45.570Z,9.17
2019-01-12T17:45:15.933Z,6.33
2019-01-12T17:47:44.223Z,8.60
2019-01-12T17:50:15.054Z,9.03
2019-01-12T17:52:43.359Z,11.23
2019-01-12T17:55:13.899Z,9.83
2019-01-12T17:57:42.133Z,9.33
2019-01-12T18:00:17.412Z,10.43
2019-01-12T18:02:45.832Z,7.80
2019-01-12T18:05:14.084Z,7.50
2019-01-12T18:07:42.310Z,9.27
2019-01-12T18:10:12.975Z,10.23
2019-01-12T18:12:41.218Z,9.97
2019-01-12T18:15:16.818Z,7.57
2019-01-12T18:17:45.215Z,7.23
2019-01-12T18:20:15.509Z,9.73
2019-01-12T18:22:43.729Z,10.00
2019-01-12T18:25:12.882Z,10.00
2019-01-12T18:27:41.388Z,11.70
2019-01-12T18:30:20.561Z,16.03
2019-01-12T18:32:48.793Z,13.63
2019-01-12T18:35:17.053Z,9.43
2019-01-12T18:37:45.370Z,11.65
2019-01-12T18:40:21.022Z,10.80
2019-01-12T18:42:49.263Z,10.73
2019-01-12T18:45:19.119Z,11.37
2019-01-12T18:47:50.033Z,17.87
2019-01-12T18:50:22.941Z,7.33
2019-01-12T18:52:51.179Z,6.53
2019-01-12T18:55:19.394Z,6.00
2019-01-12T18:57:47.637Z,8.67
2019-01-12T19:00:21.038Z,2.43
2019-01-12T19:02:49.262Z,3.07
2019-01-12T19:05:17.501Z,3.33
2019-01-12T19:07:45.718Z,6.13
2019-01-12T19:10:14.325Z,5.90
2019-01-12T19:12:42.570Z,4.60
2019-01-12T19:15:27.037Z,5.60
2019-01-12T19:17:55.302Z,9.70
2019-01-12T19:20:23.571Z,8.03
2019-01-12T19:22:51.802Z,6.17
2019-01-12T19:25:20.033Z,12.20
2019-01-12T19:27:48.279Z,10.20
2019-01-12T19:30:21.570Z,8.35
2019-01-12T19:32:49.813Z,10.47
2019-01-12T19:35:18.043Z,7.70
2019-01-12T19:37:46.416Z,10.57
2019-01-12T19:40:17.244Z,10.30
2019-01-12T19:42:45.557Z,8.43
2019-01-12T19:45:14.961Z,8.03
2019-01-12T19:47:43.245Z,8.03
2019-01-12T19:50:14.124Z,11.17
2019-01-12T19:52:42.396Z,12.40
2019-01-12T19:55:10.766Z,7.73
2019-01-12T19:57:38.988Z,7.23
2019-01-12T20:00:19.760Z,7.00
2019-01-12T20:02:47.985Z,7.67
2019-01-12T20:05:26.431Z,7.80
2019-01-12T20:07:57.030Z,7.10
2019-01-12T20:10:25.726Z,4.97
2019-01-12T20:12:53.938Z,3.80
2019-01-12T20:15:23.707Z,4.27
2019-01-12T20:17:52.177Z,2.03
2019-01-12T20:20:20.442Z,4.80
2019-01-12T20:22:50.186Z,5.47
2019-01-12T20:25:26.979Z,5.20
2019-01-12T20:27:55.321Z,6.57
2019-01-12T20:30:38.692Z,4.50
2019-01-12T20:33:13.036Z,7.33
2019-01-12T20:36:05.485Z,4.67
2019-01-12T20:38:39.958Z,6.37
2019-01-12T20:41:17.294Z,11.50
2019-01-12T20:43:54.350Z,9.03
2019-01-12T20:46:28.489Z,6.27
2019-01-12T20:49:14.965Z,7.83
2019-01-12T20:51:49.116Z,9.83
2019-01-12T20:54:26.794Z,10.87
2019-01-12T20:57:19.290Z,10.60
2019-01-12T21:00:07.560Z,10.53
2019-01-12T21:02:59.521Z,11.20
2019-01-12T21:05:39.771Z,11.13
2019-01-12T21:08:14.306Z,14.87
2019-01-12T21:10:54.697Z,10.67
2019-01-12T21:13:26.209Z,17.83
2019-01-12T21:15:58.124Z,9.30
2019-01-12T21:18:26.341Z,5.90
2019-01-12T21:20:54.581Z,6.57
2019-01-12T21:23:22.806Z,9.30
2019-01-12T21:25:52.092Z,8.33
2019-01-12T21:28:22.109Z,12.27
2019-01-12T21:30:50.325Z,6.73
2019-01-12T21:33:18.559Z,8.80
2019-01-12T21:35:46.767Z,5.83
2019-01-12T21:38:15.011Z,7.63
2019-01-12T21:40:43.233Z,6.67
2019-01-12T21:43:11.461Z,9.87
2019-01-12T21:45:39.689Z,9.00
2019-01-12T21:48:07.944Z,6.33
2019-01-12T21:50:36.453Z,6.57
2019-01-12T21:53:04.678Z,7.03
2019-01-12T21:55:32.906Z,8.40
2019-01-12T21:58:01.142Z,9.03
2019-01-12T22:00:29.569Z,11.03
2019-01-12T22:02:57.882Z,12.47
2019-01-12T22:05:26.115Z,11.87
2019-01-12T22:07:54.360Z,9.83
2019-01-12T22:10:22.707Z,9.07
2019-01-12T22:12:50.942Z,10.77
2019-01-12T22:15:19.160Z,12.40
2019-01-12T22:17:47.406Z,7.28
2019-01-12T22:20:16.566Z,9.13
2019-01-12T22:22:44.799Z,10.50
2019-01-12T22:25:13.019Z,12.67
2019-01-12T22:27:41.248Z,10.97
2019-01-12T22:30:15.660Z,10.53
2019-01-12T22:32:43.912Z,9.87
2019-01-12T22:35:12.190Z,8.80
2019-01-12T22:37:40.421Z,10.17
2019-01-12T22:40:17.434Z,9.57
2019-01-12T22:42:45.663Z,8.50
2019-01-12T22:45:13.893Z,9.53
2019-01-12T22:47:42.116Z,10.27
2019-01-12T22:50:13.115Z,10.33
2019-01-12T22:52:41.869Z,8.50
2019-01-12T22:55:11.872Z,7.60
2019-01-12T22:57:40.082Z,12.07
2019-01-12T23:00:29.637Z,6.40
2019-01-12T23:03:00.505Z,14.10
2019-01-12T23:05:28.801Z,9.90
2019-01-12T23:07:58.652Z,11.80
2019-01-12T23:10:26.899Z,8.03
2019-01-12T23:12:55.193Z,10.00
2019-01-12T23:15:23.607Z,13.83
2019-01-12T23:17:53.387Z,14.63
2019-01-12T23:20:21.939Z,11.77
2019-01-12T23:22:52.043Z,10.37
2019-01-12T23:25:20.539Z,8.10
2019-01-12T23:27:48.830Z,8.33
2019-01-12T23:30:17.105Z,10.70
2019-01-12T23:32:45.362Z,9.57
2019-01-12T23:35:13.583Z,6.53
2019-01-12T23:37:41.982Z,14.07
2019-01-12T23:40:12.608Z,11.33
2019-01-12T23:42:40.838Z,13.20
2019-01-12T23:45:11.107Z,11.13
2019-01-12T23:47:39.353Z,7.87
2019-01-12T23:50:11.672Z,11.30
2019-01-12T23:52:39.912Z,10.80
2019-01-12T23:55:08.137Z,13.57
2019-01-12T23:57:36.388Z,9.13
